createdAt,value
2022-11-20T00:03:59.801Z,22.6
2022-11-20T00:09:38.588Z,22.5
2022-11-20T00:15:01.026Z,22.5
2022-11-20T00:20:38.715Z,22.5
2022-11-20T00:26:16.578Z,22.5
2022-11-20T00:31:58.781Z,22.5
2022-11-20T00:37:20.930Z,22.5
2022-11-20T00:42:58.999Z,22.5
2022-11-20T00:48:05.411Z,22.4
2022-11-20T00:53:11.343Z,22.4
2022-11-20T00:58:21.135Z,22.4
2022-11-20T01:03:43.809Z,22.4
2022-11-20T01:08:50.426Z,22.4
2022-11-20T01:14:32.758Z,22.4
2022-11-20T01:20:10.032Z,22.4
2022-11-20T01:25:47.021Z,22.4
2022-11-20T01:31:09.499Z,22.4
2022-11-20T01:36:31.500Z,22.4
2022-11-20T01:41:53.243Z,22.4
2022-11-20T01:46:44.323Z,22.4
2022-11-20T01:52:05.520Z,22.4
2022-11-20T01:57:43.532Z,22.4
2022-11-20T02:08:12.668Z,22.4
2022-11-20T02:13:56.423Z,22.4
2022-11-20T02:19:03.517Z,22.4
2022-11-20T02:24:41.042Z,22.3
2022-11-20T02:30:02.248Z,22.3
2022-11-20T02:35:23.740Z,22.3
2022-11-20T02:41:01.101Z,22.3
2022-11-20T02:46:37.000Z,22.4
2022-11-20T02:51:44.182Z,22.3
2022-11-20T02:57:19.245Z,22.3
2022-11-20T03:02:40.709Z,22.3
2022-11-20T03:08:01.647Z,22.3
2022-11-20T03:13:23.416Z,22.3
2022-11-20T03:18:50.305Z,22.3
2022-11-20T03:23:41.545Z,22.3
2022-11-20T03:29:19.454Z,22.3
2022-11-20T03:35:01.660Z,22.3
2022-11-20T03:40:23.630Z,22.3
2022-11-20T03:46:00.129Z,22.3
2022-11-20T03:51:26.502Z,22.3
2022-11-20T03:56:33.321Z,22.3
2022-11-20T04:01:39.419Z,22.3
2022-11-20T04:07:01.252Z,22.3
2022-11-20T04:12:39.009Z,22.3
2022-11-20T04:18:01.112Z,22.2
2022-11-20T04:23:44.949Z,22.3
2022-11-20T04:29:21.529Z,22.2
2022-11-20T04:34:26.942Z,22.2
2022-11-20T04:40:04.491Z,22.2
2022-11-20T04:45:41.708Z,22.2
2022-11-20T04:51:19.517Z,22.2
2022-11-20T04:56:56.102Z,22.2
2022-11-20T05:01:50.388Z,22.2
2022-11-20T05:07:12.527Z,22.2
2022-11-20T05:12:49.749Z,22.2
2022-11-20T05:18:28.354Z,22.2
2022-11-20T05:23:36.094Z,22.2
2022-11-20T05:29:15.468Z,22.1
2022-11-20T05:34:52.828Z,22.1
2022-11-20T05:40:31.852Z,22.1
2022-11-20T05:46:09.859Z,22.1
2022-11-20T05:51:34.210Z,22.1
2022-11-20T05:57:13.299Z,22.1
2022-11-20T06:02:50.511Z,22.1
2022-11-20T06:08:27.796Z,22.1
2022-11-20T06:13:49.224Z,22.1
2022-11-20T06:19:11.456Z,22.1
2022-11-20T06:24:55.485Z,22.1
2022-11-20T06:30:36.801Z,22.1
2022-11-20T06:36:18.169Z,22.1
2022-11-20T06:41:25.263Z,22.1
2022-11-20T06:47:02.939Z,22.1
2022-11-20T06:52:43.593Z,22.1
2022-11-20T06:58:26.273Z,22
2022-11-20T07:04:10.491Z,22
2022-11-20T07:09:48.262Z,22
2022-11-20T07:15:25.642Z,22
2022-11-20T07:21:08.818Z,22
2022-11-20T07:26:47.620Z,22
2022-11-20T07:32:26.674Z,22
2022-11-20T07:38:04.055Z,21.9
2022-11-20T07:43:10.410Z,21.9
2022-11-20T07:48:31.891Z,21.9
2022-11-20T07:54:09.904Z,21.9
2022-11-20T07:59:47.461Z,21.9
2022-11-20T08:05:11.068Z,21.9
2022-11-20T08:10:36.467Z,21.9
2022-11-20T08:15:46.449Z,21.8
2022-11-20T08:21:59.155Z,21.8
2022-11-20T08:27:05.856Z,21.8
2022-11-20T08:32:52.898Z,21.8
2022-11-20T08:38:34.035Z,21.8
2022-11-20T08:44:18.424Z,21.8
2022-11-20T08:49:56.103Z,21.8
2022-11-20T08:55:33.402Z,21.8
2022-11-20T09:02:22.770Z,21.7
2022-11-20T09:08:05.284Z,21.7
2022-11-20T09:14:04.722Z,21.8
2022-11-20T09:19:44.738Z,21.7
2022-11-20T09:25:08.391Z,21.7
2022-11-20T09:30:30.308Z,21.7
2022-11-20T09:35:52.327Z,21.7
2022-11-20T09:41:34.195Z,21.7
2022-11-20T09:47:15.882Z,21.6
2022-11-20T09:52:57.117Z,21.6
2022-11-20T09:58:37.441Z,21.6
2022-11-20T10:04:14.447Z,21.6
2022-11-20T10:10:22.343Z,20.9
2022-11-20T10:16:04.569Z,46.1
2022-11-20T10:21:46.275Z,40.1
2022-11-20T10:27:25.074Z,35.9
2022-11-20T10:32:55.947Z,33.6
2022-11-20T10:39:11.457Z,31.8
2022-11-20T10:44:52.470Z,30.4
2022-11-20T10:50:20.676Z,29.2
2022-11-20T10:55:43.173Z,28.3
2022-11-20T11:01:07.411Z,27.5
2022-11-20T11:06:45.043Z,26.8
2022-11-20T11:12:07.762Z,26.3
2022-11-20T11:17:30.363Z,25.8
2022-11-20T11:22:52.363Z,25.3
2022-11-20T11:28:43.719Z,24.9
2022-11-20T11:34:21.234Z,24.6
2022-11-20T11:40:24.560Z,24.3
2022-11-20T11:46:05.541Z,24
2022-11-20T11:51:28.438Z,23.8
2022-11-20T11:56:40.847Z,23.6
2022-11-20T12:01:49.815Z,23.5
2022-11-20T12:07:31.328Z,23.3
2022-11-20T12:13:06.967Z,23.1
2022-11-20T12:18:29.128Z,23
2022-11-20T12:24:07.325Z,22.9
2022-11-20T12:29:44.614Z,22.8
2022-11-20T12:35:27.748Z,22.7
2022-11-20T12:40:50.452Z,22.6
2022-11-20T12:45:41.929Z,22.5
2022-11-20T12:51:47.454Z,22.4
2022-11-20T12:57:25.152Z,22.4
2022-11-20T13:03:03.196Z,22.3
2022-11-20T13:08:26.557Z,22.3
2022-11-20T13:14:09.458Z,22.2
2022-11-20T13:19:46.555Z,22.1
2022-11-20T13:25:29.114Z,22.1
2022-11-20T13:31:06.400Z,22.1
2022-11-20T13:36:44.009Z,22
2022-11-20T13:42:22.116Z,21.9
2022-11-20T13:48:04.538Z,21.9
2022-11-20T13:53:43.989Z,21.9
2022-11-20T13:59:22.193Z,21.9
2022-11-20T14:05:28.857Z,21.8
2022-11-20T14:11:07.194Z,21.8
2022-11-20T14:16:51.366Z,21.8
2022-11-20T14:22:28.917Z,21.8
2022-11-20T14:27:51.436Z,21.8
2022-11-20T14:33:29.030Z,21.7
2022-11-20T14:39:06.635Z,21.6
2022-11-20T14:44:44.774Z,21.6
2022-11-20T14:50:26.310Z,21.6
2022-11-20T14:56:03.843Z,21.6
2022-11-20T15:01:26.158Z,21.6
2022-11-20T15:07:08.129Z,21.6
2022-11-20T15:12:30.611Z,21.6
2022-11-20T15:18:11.529Z,21.6
2022-11-20T15:23:17.928Z,21.6
2022-11-20T15:28:55.796Z,21.6
2022-11-20T15:34:33.990Z,21.5
2022-11-20T15:40:15.496Z,21.5
2022-11-20T15:45:52.492Z,21.5
2022-11-20T15:51:20.256Z,21.5
2022-11-20T15:56:32.985Z,21.4
2022-11-20T16:01:55.658Z,21.4
2022-11-20T16:07:24.577Z,21.4
2022-11-20T16:12:46.640Z,21.4
2022-11-20T16:18:25.452Z,21.4
2022-11-20T16:24:04.642Z,21.4
2022-11-20T16:29:43.129Z,21.4
2022-11-20T16:35:21.116Z,21.4
2022-11-20T16:40:31.705Z,21.4
2022-11-20T16:45:59.247Z,21.4
2022-11-20T16:51:37.211Z,21.4
2022-11-20T16:57:00.039Z,21.4
2022-11-20T17:02:22.512Z,21.4
2022-11-20T17:08:00.978Z,21.4
2022-11-20T17:13:40.025Z,21.4
2022-11-20T17:19:20.122Z,21.4
2022-11-20T17:24:47.895Z,21.4
2022-11-20T17:30:14.923Z,21.4
2022-11-20T17:35:53.819Z,21.3
2022-11-20T17:41:19.797Z,21.3
2022-11-20T17:47:01.373Z,21.3
2022-11-20T17:52:39.901Z,21.3
2022-11-20T17:58:19.415Z,21.3
2022-11-20T18:04:04.073Z,21.3
2022-11-20T18:09:43.362Z,21.3
2022-11-20T18:15:21.894Z,21.2
2022-11-20T18:32:30.702Z,21.1
2022-11-20T18:37:59.956Z,21.1
2022-11-20T18:43:38.483Z,21
2022-11-20T18:49:01.318Z,20.9
2022-11-20T18:54:22.938Z,21
2022-11-20T18:59:50.020Z,21
2022-11-20T19:05:34.328Z,20.9
2022-11-20T19:10:58.030Z,21
2022-11-20T19:16:37.132Z,21
2022-11-20T19:22:14.468Z,21
2022-11-20T19:27:23.574Z,21
2022-11-20T19:33:08.199Z,21
2022-11-20T19:38:52.094Z,20.9
2022-11-20T19:44:14.640Z,21
2022-11-20T19:50:08.723Z,20.9
2022-11-20T19:55:33.926Z,20.9
2022-11-20T20:01:19.233Z,21
2022-11-20T20:06:41.870Z,20.9
2022-11-20T20:12:07.841Z,20.9
2022-11-20T20:17:30.668Z,20.9
2022-11-20T20:23:08.105Z,20.9
2022-11-20T20:28:45.844Z,20.9
2022-11-20T20:34:08.093Z,20.9
2022-11-20T20:39:14.728Z,20.9
2022-11-20T20:44:21.350Z,20.9
2022-11-20T20:49:44.291Z,20.9
2022-11-20T20:55:23.850Z,21
2022-11-20T21:00:46.883Z,21.1
2022-11-20T21:11:19.269Z,21.2
2022-11-20T21:16:56.933Z,21.3
2022-11-20T21:22:36.593Z,21.3
2022-11-20T21:28:17.923Z,21.3
2022-11-20T21:33:40.348Z,21.4
2022-11-20T21:39:04.662Z,21.4
2022-11-20T21:45:02.897Z,21.5
2022-11-20T21:50:40.401Z,21.5
2022-11-20T21:56:02.262Z,21.6
2022-11-20T22:01:42.672Z,21.6
2022-11-20T22:07:20.238Z,21.6
2022-11-20T22:12:57.857Z,21.6
2022-11-20T22:19:02.123Z,21.6
2022-11-20T22:24:24.131Z,21.7
2022-11-20T22:29:49.304Z,21.7
2022-11-20T22:35:16.116Z,21.7
2022-11-20T22:40:57.079Z,21.7
2022-11-20T22:46:18.871Z,21.7
2022-11-20T22:51:59.602Z,21.7
2022-11-20T22:57:36.727Z,21.7
2022-11-20T23:03:13.871Z,21.7
2022-11-20T23:08:51.523Z,21.7
2022-11-20T23:14:29.508Z,21.7
2022-11-20T23:20:07.451Z,21.7
2022-11-20T23:25:44.729Z,21.7
2022-11-20T23:31:26.844Z,21.7
2022-11-20T23:36:48.856Z,21.6
2022-11-20T23:42:26.175Z,21.7
2022-11-20T23:48:03.477Z,21.7
2022-11-20T23:53:41.437Z,21.7
2022-11-20T23:59:09.907Z,21.6
